Terminal Aerodrome Forecast
Issued by NWS Twin Cities, MN

Home | Current Version | Previous Version | Text Only | Print | Product List | Glossary On
Versions: 1 2 3 4 5 6 7 8 9 10 11 12 13 14 15 16 17 18 19 20 21 22 23 24 25 26 27 28 29 30
000
FTUS43 KMPX 291137 CCA
TAFMSP
TAF COR
KMSP 291137Z 2912/3018 01005KT P6SM FEW050 SCT090
     FM291500 04006KT P6SM SCT250
     FM291900 02008KT P6SM SCT050 SCT250
     FM300200 04003KT P6SM SCT250=

USA.gov is the U.S. government's official web portal to all federal, state and local government web resources and services.